sensor_id;sensor_type;location;lat;lon;timestamp;pressure;altitude;pressure_sealevel;temperature;humidity
9325;BME280;4701;51.566;6.776;2023-03-13T06:00:36;99507.31;;;23.60;64.04
9325;BME280;4701;51.566;6.776;2023-03-13T06:03:01;99502.94;;;23.59;64.35
9325;BME280;4701;51.566;6.776;2023-03-13T06:05:09;99511.28;;;23.59;64.18
9325;BME280;4701;51.566;6.776;2023-03-13T06:07:12;99504.94;;;23.59;64.52
9325;BME280;4701;51.566;6.776;2023-03-13T06:09:14;99517.22;;;23.58;64.21
9325;BME280;4701;51.566;6.776;2023-03-13T06:11:16;99515.25;;;23.58;64.22
9325;BME280;4701;51.566;6.776;2023-03-13T06:13:18;99510.88;;;23.57;64.60
9325;BME280;4701;51.566;6.776;2023-03-13T06:15:22;99514.81;;;23.56;64.37
9325;BME280;4701;51.566;6.776;2023-03-13T06:17:36;99508.50;;;23.56;64.37
9325;BME280;4701;51.566;6.776;2023-03-13T06:19:38;99518.81;;;23.55;64.39
9325;BME280;4701;51.566;6.776;2023-03-13T06:21:40;99509.66;;;23.55;64.44
9325;BME280;4701;51.566;6.776;2023-03-13T06:23:42;99518.00;;;23.55;64.43
9325;BME280;4701;51.566;6.776;2023-03-13T06:25:46;99496.94;;;23.54;64.36
9325;BME280;4701;51.566;6.776;2023-03-13T06:27:47;99507.28;;;23.53;64.58
9325;BME280;4701;51.566;6.776;2023-03-13T06:29:49;99503.69;;;23.53;64.21
9325;BME280;4701;51.566;6.776;2023-03-13T06:31:51;99507.28;;;23.53;64.52
9325;BME280;4701;51.566;6.776;2023-03-13T06:33:55;99507.66;;;23.52;64.23
9325;BME280;4701;51.566;6.776;2023-03-13T06:35:57;99492.94;;;23.51;64.58
9325;BME280;4701;51.566;6.776;2023-03-13T06:38:00;99510.00;;;23.50;64.18
9325;BME280;4701;51.566;6.776;2023-03-13T06:40:02;99511.97;;;23.49;64.49
9325;BME280;4701;51.566;6.776;2023-03-13T06:42:06;99519.16;;;23.50;64.72
9325;BME280;4701;51.566;6.776;2023-03-13T06:44:07;99526.69;;;23.50;64.49
9325;BME280;4701;51.566;6.776;2023-03-13T06:46:15;99519.09;;;23.47;63.12
9325;BME280;4701;51.566;6.776;2023-03-13T06:48:17;99521.47;;;23.45;63.70
9325;BME280;4701;51.566;6.776;2023-03-13T06:50:21;99515.47;;;23.43;63.61
9325;BME280;4701;51.566;6.776;2023-03-13T06:52:23;99509.47;;;23.40;63.95
9325;BME280;4701;51.566;6.776;2023-03-13T06:54:25;99528.56;;;23.38;62.18
9325;BME280;4701;51.566;6.776;2023-03-13T06:56:27;99513.84;;;23.38;61.19
9325;BME280;4701;51.566;6.776;2023-03-13T06:58:28;99505.88;;;23.36;59.64
9325;BME280;4701;51.566;6.776;2023-03-13T07:00:30;99513.84;;;23.38;58.22
9325;BME280;4701;51.566;6.776;2023-03-13T07:02:33;99515.81;;;23.37;56.67
9325;BME280;4701;51.566;6.776;2023-03-13T07:04:35;99506.69;;;23.37;55.32
9325;BME280;4701;51.566;6.776;2023-03-13T07:06:38;99514.66;;;23.38;54.42
9325;BME280;4701;51.566;6.776;2023-03-13T07:08:40;99512.66;;;23.39;53.41
9325;BME280;4701;51.566;6.776;2023-03-13T07:10:43;99510.28;;;23.41;52.91
9325;BME280;4701;51.566;6.776;2023-03-13T07:12:48;99505.16;;;23.43;52.33
9325;BME280;4701;51.566;6.776;2023-03-13T07:14:49;99509.53;;;23.44;51.58
9325;BME280;4701;51.566;6.776;2023-03-13T07:16:51;99498.03;;;23.46;51.07
9325;BME280;4701;51.566;6.776;2023-03-13T07:18:53;99483.75;;;23.47;51.15
9325;BME280;4701;51.566;6.776;2023-03-13T07:20:56;99488.94;;;23.49;51.02
9325;BME280;4701;51.566;6.776;2023-03-13T07:23:00;99477.84;;;23.52;51.98
9325;BME280;4701;51.566;6.776;2023-03-13T07:25:02;99481.06;;;23.54;52.04
9325;BME280;4701;51.566;6.776;2023-03-13T07:27:04;99475.88;;;23.56;54.57
9325;BME280;4701;51.566;6.776;2023-03-13T07:29:06;99476.72;;;23.60;58.15
9325;BME280;4701;51.566;6.776;2023-03-13T07:31:11;99477.97;;;23.63;59.59
9325;BME280;4701;51.566;6.776;2023-03-13T07:33:13;99470.81;;;23.65;59.42
9325;BME280;4701;51.566;6.776;2023-03-13T07:35:15;99466.84;;;23.66;58.63
9325;BME280;4701;51.566;6.776;2023-03-13T07:37:17;99466.47;;;23.68;57.23
9325;BME280;4701;51.566;6.776;2023-03-13T07:39:20;99477.22;;;23.69;56.08
9325;BME280;4701;51.566;6.776;2023-03-13T07:41:22;99472.88;;;23.72;55.04
9325;BME280;4701;51.566;6.776;2023-03-13T07:43:25;99459.75;;;23.72;54.09
9325;BME280;4701;51.566;6.776;2023-03-13T07:45:27;99462.56;;;23.76;53.42
9325;BME280;4701;51.566;6.776;2023-03-13T07:47:29;99473.31;;;23.77;53.04
9325;BME280;4701;51.566;6.776;2023-03-13T07:49:31;99475.69;;;23.79;52.41
9325;BME280;4701;51.566;6.776;2023-03-13T07:51:33;99470.94;;;23.80;50.24
9325;BME280;4701;51.566;6.776;2023-03-13T07:53:34;99465.38;;;23.80;49.06
9325;BME280;4701;51.566;6.776;2023-03-13T07:55:38;99457.03;;;23.80;48.52
9325;BME280;4701;51.566;6.776;2023-03-13T07:57:39;99495.19;;;23.79;47.86
9325;BME280;4701;51.566;6.776;2023-03-13T07:59:41;99472.50;;;23.77;48.19
9325;BME280;4701;51.566;6.776;2023-03-13T08:01:43;99486.78;;;23.75;47.81
9325;BME280;4701;51.566;6.776;2023-03-13T08:03:45;99474.84;;;23.75;48.17
9325;BME280;4701;51.566;6.776;2023-03-13T08:05:56;99469.69;;;23.73;47.54
9325;BME280;4701;51.566;6.776;2023-03-13T08:07:58;99458.53;;;23.70;48.23
9325;BME280;4701;51.566;6.776;2023-03-13T08:10:00;99461.69;;;23.68;48.99
9325;BME280;4701;51.566;6.776;2023-03-13T08:12:04;99478.78;;;23.67;48.58
9325;BME280;4701;51.566;6.776;2023-03-13T08:14:06;99460.91;;;23.68;48.47
9325;BME280;4701;51.566;6.776;2023-03-13T08:16:09;99460.09;;;23.67;47.88
9325;BME280;4701;51.566;6.776;2023-03-13T08:18:11;99466.47;;;23.68;48.13
9325;BME280;4701;51.566;6.776;2023-03-13T08:20:13;99464.47;;;23.68;47.70
9325;BME280;4701;51.566;6.776;2023-03-13T08:22:15;99481.16;;;23.68;48.34
9325;BME280;4701;51.566;6.776;2023-03-13T08:24:20;99472.44;;;23.70;48.46
9325;BME280;4701;51.566;6.776;2023-03-13T08:26:24;99485.19;;;23.71;48.68
9325;BME280;4701;51.566;6.776;2023-03-13T08:28:27;99471.25;;;23.71;49.94
9325;BME280;4701;51.566;6.776;2023-03-13T08:30:29;99484.38;;;23.70;50.27
9325;BME280;4701;51.566;6.776;2023-03-13T08:32:31;99483.56;;;23.70;50.70
9325;BME280;4701;51.566;6.776;2023-03-13T08:34:33;99475.66;;;23.72;52.65
9325;BME280;4701;51.566;6.776;2023-03-13T08:36:37;99477.69;;;23.79;58.72
9325;BME280;4701;51.566;6.776;2023-03-13T08:38:39;99472.13;;;23.82;64.02
9325;BME280;4701;51.566;6.776;2023-03-13T08:40:43;99468.19;;;23.87;67.88
9325;BME280;4701;51.566;6.776;2023-03-13T08:42:45;99475.78;;;23.93;75.20
9325;BME280;4701;51.566;6.776;2023-03-13T08:44:48;99481.69;;;23.85;69.36
9325;BME280;4701;51.566;6.776;2023-03-13T08:46:50;99478.06;;;23.77;57.88
9325;BME280;4701;51.566;6.776;2023-03-13T08:48:53;99473.72;;;23.83;55.38
9325;BME280;4701;51.566;6.776;2023-03-13T08:51:00;99475.78;;;23.90;53.12
9325;BME280;4701;51.566;6.776;2023-03-13T08:53:02;99475.03;;;23.96;51.82
9325;BME280;4701;51.566;6.776;2023-03-13T08:55:05;99466.31;;;24.01;51.20
9325;BME280;4701;51.566;6.776;2023-03-13T08:57:07;99468.75;;;24.06;52.27
9325;BME280;4701;51.566;6.776;2023-03-13T08:59:09;99468.00;;;24.13;54.40
9325;BME280;4701;51.566;6.776;2023-03-13T09:01:13;99460.84;;;24.19;55.32
9325;BME280;4701;51.566;6.776;2023-03-13T09:03:15;99448.97;;;24.22;55.54
9325;BME280;4701;51.566;6.776;2023-03-13T09:05:17;99454.16;;;24.27;55.95
9325;BME280;4701;51.566;6.776;2023-03-13T09:07:19;99455.81;;;24.32;55.83
9325;BME280;4701;51.566;6.776;2023-03-13T09:09:21;99451.03;;;24.36;55.77
9325;BME280;4701;51.566;6.776;2023-03-13T09:11:23;99441.53;;;24.40;55.40
9325;BME280;4701;51.566;6.776;2023-03-13T09:13:26;99450.69;;;24.44;55.15
9325;BME280;4701;51.566;6.776;2023-03-13T09:15:28;99440.38;;;24.48;54.84
9325;BME280;4701;51.566;6.776;2023-03-13T09:17:31;99438.38;;;24.52;54.59
9325;BME280;4701;51.566;6.776;2023-03-13T09:19:33;99442.38;;;24.55;54.39
9325;BME280;4701;51.566;6.776;2023-03-13T09:21:35;99441.19;;;24.60;53.76
9325;BME280;4701;51.566;6.776;2023-03-13T09:23:37;99438.44;;;24.63;53.52
9325;BME280;4701;51.566;6.776;2023-03-13T09:25:39;99440.44;;;24.66;53.39
9325;BME280;4701;51.566;6.776;2023-03-13T09:27:41;99439.63;;;24.69;53.01
9325;BME280;4701;51.566;6.776;2023-03-13T09:29:43;99433.28;;;24.72;52.42
9325;BME280;4701;51.566;6.776;2023-03-13T09:31:44;99424.13;;;24.75;52.53
9325;BME280;4701;51.566;6.776;2023-03-13T09:33:48;99415.00;;;24.78;52.10
9325;BME280;4701;51.566;6.776;2023-03-13T09:35:51;99428.16;;;24.81;51.90
9325;BME280;4701;51.566;6.776;2023-03-13T09:37:52;99427.75;;;24.83;51.57
9325;BME280;4701;51.566;6.776;2023-03-13T09:39:54;99417.00;;;24.85;51.28
9325;BME280;4701;51.566;6.776;2023-03-13T09:42:02;99403.88;;;24.89;51.15
9325;BME280;4701;51.566;6.776;2023-03-13T09:44:13;99409.88;;;24.91;50.79
9325;BME280;4701;51.566;6.776;2023-03-13T09:46:23;99412.66;;;24.95;50.59
9325;BME280;4701;51.566;6.776;2023-03-13T09:48:28;99397.53;;;24.96;50.53
9325;BME280;4701;51.566;6.776;2023-03-13T09:50:34;99409.09;;;24.98;50.32
9325;BME280;4701;51.566;6.776;2023-03-13T09:52:39;99417.06;;;24.99;50.14
9325;BME280;4701;51.566;6.776;2023-03-13T09:54:45;99401.53;;;25.02;50.07
9325;BME280;4701;51.566;6.776;2023-03-13T09:56:52;99400.34;;;25.03;49.93
9325;BME280;4701;51.566;6.776;2023-03-13T09:58:59;99403.16;;;25.06;49.76
9325;BME280;4701;51.566;6.776;2023-03-13T10:01:03;99395.19;;;25.08;49.53
9325;BME280;4701;51.566;6.776;2023-03-13T10:03:12;99389.19;;;25.10;49.48
9325;BME280;4701;51.566;6.776;2023-03-13T10:05:18;99387.59;;;25.12;49.33
9325;BME280;4701;51.566;6.776;2023-03-13T10:07:22;99388.00;;;25.14;49.27
9325;BME280;4701;51.566;6.776;2023-03-13T10:09:28;99381.25;;;25.15;49.01
9325;BME280;4701;51.566;6.776;2023-03-13T10:11:36;99379.63;;;25.18;48.73
9325;BME280;4701;51.566;6.776;2023-03-13T10:13:46;99385.63;;;25.20;48.69
9325;BME280;4701;51.566;6.776;2023-03-13T10:15:54;99372.47;;;25.20;48.15
9325;BME280;4701;51.566;6.776;2023-03-13T10:17:59;99392.00;;;25.24;47.65
9325;BME280;4701;51.566;6.776;2023-03-13T10:20:16;99363.72;;;25.25;47.70
9325;BME280;4701;51.566;6.776;2023-03-13T10:22:24;99367.69;;;25.28;47.67
9325;BME280;4701;51.566;6.776;2023-03-13T10:24:32;99370.88;;;25.30;47.84
9325;BME280;4701;51.566;6.776;2023-03-13T10:26:36;99380.06;;;25.31;47.62
9325;BME280;4701;51.566;6.776;2023-03-13T10:28:38;99367.31;;;25.33;47.59
9325;BME280;4701;51.566;6.776;2023-03-13T10:30:43;99366.13;;;25.34;47.60
9325;BME280;4701;51.566;6.776;2023-03-13T10:32:47;99381.63;;;25.35;47.69
9325;BME280;4701;51.566;6.776;2023-03-13T10:34:53;99352.56;;;25.36;47.70
9325;BME280;4701;51.566;6.776;2023-03-13T10:36:58;99366.09;;;25.38;47.71
9325;BME280;4701;51.566;6.776;2023-03-13T10:39:07;99347.00;;;25.40;47.62
9325;BME280;4701;51.566;6.776;2023-03-13T10:41:26;99355.75;;;25.42;47.24
9325;BME280;4701;51.566;6.776;2023-03-13T10:43:29;99337.84;;;25.43;47.13
9325;BME280;4701;51.566;6.776;2023-03-13T10:45:35;99322.66;;;25.44;47.16
9325;BME280;4701;51.566;6.776;2023-03-13T10:47:37;99341.78;;;25.45;47.26
9325;BME280;4701;51.566;6.776;2023-03-13T10:49:47;99332.22;;;25.46;47.14
9325;BME280;4701;51.566;6.776;2023-03-13T10:51:52;99328.66;;;25.49;46.98
9325;BME280;4701;51.566;6.776;2023-03-13T10:53:54;99315.50;;;25.50;46.96
9325;BME280;4701;51.566;6.776;2023-03-13T10:56:02;99344.19;;;25.50;46.81
9325;BME280;4701;51.566;6.776;2023-03-13T10:58:04;99323.03;;;25.53;46.74
9325;BME280;4701;51.566;6.776;2023-03-13T11:00:22;99320.66;;;25.55;46.50
9325;BME280;4701;51.566;6.776;2023-03-13T11:02:31;99323.84;;;25.57;46.62
9325;BME280;4701;51.566;6.776;2023-03-13T11:04:35;99313.50;;;25.57;46.93
9325;BME280;4701;51.566;6.776;2023-03-13T11:06:40;99294.75;;;25.58;46.89
9325;BME280;4701;51.566;6.776;2023-03-13T11:08:42;99315.50;;;25.60;46.90
9325;BME280;4701;51.566;6.776;2023-03-13T11:10:55;99317.09;;;25.61;46.69
9325;BME280;4701;51.566;6.776;2023-03-13T11:12:58;99313.91;;;25.63;46.83
9325;BME280;4701;51.566;6.776;2023-03-13T11:15:02;99311.09;;;25.63;46.60
9325;BME280;4701;51.566;6.776;2023-03-13T11:17:22;99312.31;;;25.66;46.70
9325;BME280;4701;51.566;6.776;2023-03-13T11:19:34;99300.75;;;25.67;47.20
9325;BME280;4701;51.566;6.776;2023-03-13T11:21:49;99304.34;;;25.68;47.15
9325;BME280;4701;51.566;6.776;2023-03-13T11:24:02;99287.56;;;25.71;46.87
9325;BME280;4701;51.566;6.776;2023-03-13T11:26:11;99298.31;;;25.73;46.84
9325;BME280;4701;51.566;6.776;2023-03-13T11:28:27;99297.13;;;25.74;46.96
9325;BME280;4701;51.566;6.776;2023-03-13T11:30:44;99298.72;;;25.75;46.61
9325;BME280;4701;51.566;6.776;2023-03-13T11:32:52;99282.78;;;25.75;47.23
9325;BME280;4701;51.566;6.776;2023-03-13T11:34:57;99289.97;;;25.76;47.03
9325;BME280;4701;51.566;6.776;2023-03-13T11:37:04;99280.41;;;25.77;46.88
9325;BME280;4701;51.566;6.776;2023-03-13T11:41:53;99266.81;;;25.79;46.73
9325;BME280;4701;51.566;6.776;2023-03-13T11:44:13;99275.56;;;25.81;46.50
9325;BME280;4701;51.566;6.776;2023-03-13T11:46:46;99254.03;;;25.82;46.39
9325;BME280;4701;51.566;6.776;2023-03-13T11:49:05;99253.25;;;25.81;46.58
9325;BME280;4701;51.566;6.776;2023-03-13T11:51:15;99277.97;;;25.83;46.44
9325;BME280;4701;51.566;6.776;2023-03-13T11:53:28;99258.03;;;25.84;46.49
9325;BME280;4701;51.566;6.776;2023-03-13T11:55:44;99252.44;;;25.84;46.55
9325;BME280;4701;51.566;6.776;2023-03-13T11:57:56;99240.88;;;25.86;46.47
9325;BME280;4701;51.566;6.776;2023-03-13T12:00:21;99234.88;;;25.87;46.54
9325;BME280;4701;51.566;6.776;2023-03-13T12:02:32;99242.84;;;25.89;46.31
9325;BME280;4701;51.566;6.776;2023-03-13T12:04:40;99253.63;;;25.90;46.20
9325;BME280;4701;51.566;6.776;2023-03-13T12:06:46;99248.81;;;25.91;46.21
9325;BME280;4701;51.566;6.776;2023-03-13T12:08:54;99239.25;;;25.92;46.05
9325;BME280;4701;51.566;6.776;2023-03-13T12:11:05;99226.09;;;25.92;46.11
9325;BME280;4701;51.566;6.776;2023-03-13T12:13:12;99229.28;;;25.94;46.24
9325;BME280;4701;51.566;6.776;2023-03-13T12:15:20;99225.25;;;25.95;46.36
9325;BME280;4701;51.566;6.776;2023-03-13T12:17:30;99211.69;;;25.97;46.54
9325;BME280;4701;51.566;6.776;2023-03-13T12:19:39;99218.88;;;25.98;46.24
9325;BME280;4701;51.566;6.776;2023-03-13T12:21:46;99209.72;;;25.98;46.42
9325;BME280;4701;51.566;6.776;2023-03-13T12:23:56;99207.31;;;26.00;46.00
9325;BME280;4701;51.566;6.776;2023-03-13T12:26:04;99219.66;;;26.03;46.15
9325;BME280;4701;51.566;6.776;2023-03-13T12:28:19;99208.88;;;26.05;46.40
9325;BME280;4701;51.566;6.776;2023-03-13T12:30:32;99201.28;;;26.05;46.27
9325;BME280;4701;51.566;6.776;2023-03-13T12:32:41;99206.47;;;26.07;46.45
9325;BME280;4701;51.566;6.776;2023-03-13T12:34:51;99198.09;;;26.07;46.58
9325;BME280;4701;51.566;6.776;2023-03-13T12:36:58;99201.28;;;26.09;46.65
9325;BME280;4701;51.566;6.776;2023-03-13T12:39:16;99198.09;;;26.10;47.51
9325;BME280;4701;51.566;6.776;2023-03-13T12:41:24;99188.06;;;26.13;48.37
9325;BME280;4701;51.566;6.776;2023-03-13T12:43:31;99177.72;;;26.13;48.58
9325;BME280;4701;51.566;6.776;2023-03-13T12:45:37;99165.34;;;26.14;48.88
9325;BME280;4701;51.566;6.776;2023-03-13T12:50:38;99174.50;;;26.18;49.42
9325;BME280;4701;51.566;6.776;2023-03-13T12:55:49;99157.69;;;26.22;49.40
9325;BME280;4701;51.566;6.776;2023-03-13T12:58:12;99178.44;;;26.24;49.58
9325;BME280;4701;51.566;6.776;2023-03-13T13:00:19;99160.47;;;26.25;49.02
9325;BME280;4701;51.566;6.776;2023-03-13T13:02:24;99168.09;;;26.28;48.80
9325;BME280;4701;51.566;6.776;2023-03-13T13:04:30;99155.69;;;26.29;48.49
9325;BME280;4701;51.566;6.776;2023-03-13T13:06:56;99142.50;;;26.33;48.35
9325;BME280;4701;51.566;6.776;2023-03-13T13:09:06;99157.66;;;26.36;48.11
9325;BME280;4701;51.566;6.776;2023-03-13T13:11:42;99132.47;;;26.40;47.74
9325;BME280;4701;51.566;6.776;2023-03-13T13:13:46;99133.25;;;26.44;47.49
9325;BME280;4701;51.566;6.776;2023-03-13T13:15:58;99134.41;;;26.46;47.30
9325;BME280;4701;51.566;6.776;2023-03-13T13:18:12;99126.41;;;26.48;46.88
9325;BME280;4701;51.566;6.776;2023-03-13T13:20:40;99133.56;;;26.53;46.16
9325;BME280;4701;51.566;6.776;2023-03-13T13:22:47;99131.91;;;26.55;46.35
9325;BME280;4701;51.566;6.776;2023-03-13T13:24:50;99132.31;;;26.57;46.20
9325;BME280;4701;51.566;6.776;2023-03-13T13:26:53;99125.91;;;26.60;45.76
9325;BME280;4701;51.566;6.776;2023-03-13T13:28:55;99137.47;;;26.62;45.68
9325;BME280;4701;51.566;6.776;2023-03-13T13:30:58;99126.66;;;26.64;45.98
9325;BME280;4701;51.566;6.776;2023-03-13T13:33:36;99142.59;;;26.67;45.96
9325;BME280;4701;51.566;6.776;2023-03-13T13:35:38;99104.66;;;26.70;45.58
9325;BME280;4701;51.566;6.776;2023-03-13T13:37:41;99125.81;;;26.71;45.49
9325;BME280;4701;51.566;6.776;2023-03-13T13:39:45;99128.97;;;26.73;46.38
9325;BME280;4701;51.566;6.776;2023-03-13T13:41:49;99114.97;;;26.77;47.52
9325;BME280;4701;51.566;6.776;2023-03-13T13:44:22;99132.47;;;26.81;51.20
9325;BME280;4701;51.566;6.776;2023-03-13T13:46:26;99124.06;;;26.84;55.90
9325;BME280;4701;51.566;6.776;2023-03-13T13:48:30;99126.47;;;26.86;60.98
9325;BME280;4701;51.566;6.776;2023-03-13T13:50:35;99110.84;;;26.88;64.51
9325;BME280;4701;51.566;6.776;2023-03-13T13:52:37;99114.84;;;26.91;67.56
9325;BME280;4701;51.566;6.776;2023-03-13T13:54:53;99125.63;;;26.92;68.30
9325;BME280;4701;51.566;6.776;2023-03-13T13:56:57;99109.63;;;26.93;67.61
9325;BME280;4701;51.566;6.776;2023-03-13T13:59:02;99102.03;;;26.93;66.58
9325;BME280;4701;51.566;6.776;2023-03-13T14:01:06;99106.03;;;26.96;64.73
9325;BME280;4701;51.566;6.776;2023-03-13T14:03:19;99117.56;;;26.98;63.44
9325;BME280;4701;51.566;6.776;2023-03-13T14:05:22;99103.16;;;26.99;61.03
9325;BME280;4701;51.566;6.776;2023-03-13T14:07:40;99109.13;;;27.01;58.34
9325;BME280;4701;51.566;6.776;2023-03-13T14:09:52;99113.13;;;27.04;57.11
9325;BME280;4701;51.566;6.776;2023-03-13T14:11:55;99101.09;;;27.07;56.74
9325;BME280;4701;51.566;6.776;2023-03-13T14:14:12;99098.25;;;27.10;55.55
9325;BME280;4701;51.566;6.776;2023-03-13T14:16:21;99099.06;;;27.11;55.22
9325;BME280;4701;51.566;6.776;2023-03-13T14:18:26;99107.38;;;27.15;54.76
9325;BME280;4701;51.566;6.776;2023-03-13T14:20:31;99106.16;;;27.16;54.11
9325;BME280;4701;51.566;6.776;2023-03-13T14:22:45;99091.78;;;27.17;53.28
9325;BME280;4701;51.566;6.776;2023-03-13T14:24:56;99083.78;;;27.19;53.24
9325;BME280;4701;51.566;6.776;2023-03-13T14:26:58;99078.97;;;27.20;52.87
9325;BME280;4701;51.566;6.776;2023-03-13T14:29:01;99086.50;;;27.23;52.17
9325;BME280;4701;51.566;6.776;2023-03-13T14:31:03;99067.31;;;27.25;51.34
9325;BME280;4701;51.566;6.776;2023-03-13T14:33:05;99058.50;;;27.26;51.22
9325;BME280;4701;51.566;6.776;2023-03-13T14:35:09;99060.88;;;27.28;50.41
9325;BME280;4701;51.566;6.776;2023-03-13T14:37:33;99059.25;;;27.30;50.08
9325;BME280;4701;51.566;6.776;2023-03-13T14:39:41;99052.44;;;27.31;49.94
9325;BME280;4701;51.566;6.776;2023-03-13T14:41:46;99052.00;;;27.33;49.26
9325;BME280;4701;51.566;6.776;2023-03-13T14:43:48;99046.81;;;27.35;49.05
9325;BME280;4701;51.566;6.776;2023-03-13T14:45:50;99047.59;;;27.35;49.01
9325;BME280;4701;51.566;6.776;2023-03-13T14:47:54;99047.19;;;27.37;48.93
9325;BME280;4701;51.566;6.776;2023-03-13T14:50:01;99041.16;;;27.38;48.68
9325;BME280;4701;51.566;6.776;2023-03-13T14:52:05;99048.31;;;27.39;48.45
9325;BME280;4701;51.566;6.776;2023-03-13T14:54:26;99043.53;;;27.40;48.32
9325;BME280;4701;51.566;6.776;2023-03-13T14:56:34;99057.50;;;27.40;48.60
9325;BME280;4701;51.566;6.776;2023-03-13T14:58:37;99050.28;;;27.42;48.32
9325;BME280;4701;51.566;6.776;2023-03-13T15:00:40;99047.06;;;27.44;48.44
9325;BME280;4701;51.566;6.776;2023-03-13T15:02:43;99033.47;;;27.46;48.36
9325;BME280;4701;51.566;6.776;2023-03-13T15:04:54;99038.66;;;27.47;47.87
9325;BME280;4701;51.566;6.776;2023-03-13T15:07:01;99026.22;;;27.48;47.64
9325;BME280;4701;51.566;6.776;2023-03-13T15:09:14;99021.78;;;27.51;47.54
9325;BME280;4701;51.566;6.776;2023-03-13T15:11:19;99019.78;;;27.52;47.22
9325;BME280;4701;51.566;6.776;2023-03-13T15:13:25;99013.38;;;27.55;47.00
9325;BME280;4701;51.566;6.776;2023-03-13T15:15:28;99026.16;;;27.56;46.80
9325;BME280;4701;51.566;6.776;2023-03-13T15:17:30;99004.91;;;27.58;46.69
9325;BME280;4701;51.566;6.776;2023-03-13T15:19:33;99013.31;;;27.58;46.31
9325;BME280;4701;51.566;6.776;2023-03-13T15:21:35;99004.09;;;27.61;46.48
9325;BME280;4701;51.566;6.776;2023-03-13T15:23:37;98995.28;;;27.63;46.27
9325;BME280;4701;51.566;6.776;2023-03-13T15:25:40;98988.47;;;27.64;46.15
9325;BME280;4701;51.566;6.776;2023-03-13T15:27:42;98989.59;;;27.66;45.68
9325;BME280;4701;51.566;6.776;2023-03-13T15:29:45;98990.41;;;27.67;45.66
9325;BME280;4701;51.566;6.776;2023-03-13T15:31:47;98978.78;;;27.68;45.73
9325;BME280;4701;51.566;6.776;2023-03-13T15:33:54;98980.75;;;27.71;45.45
9325;BME280;4701;51.566;6.776;2023-03-13T15:35:59;98983.13;;;27.73;45.86
9325;BME280;4701;51.566;6.776;2023-03-13T15:38:01;98970.69;;;27.74;45.60
9325;BME280;4701;51.566;6.776;2023-03-13T15:40:05;98977.88;;;27.75;45.18
9325;BME280;4701;51.566;6.776;2023-03-13T15:42:07;98961.44;;;27.77;45.08
9325;BME280;4701;51.566;6.776;2023-03-13T15:44:09;98971.00;;;27.79;45.39
9325;BME280;4701;51.566;6.776;2023-03-13T15:46:13;98949.41;;;27.80;45.47
9325;BME280;4701;51.566;6.776;2023-03-13T15:48:16;98952.56;;;27.82;45.14
9325;BME280;4701;51.566;6.776;2023-03-13T15:50:19;98932.97;;;27.82;45.66
9325;BME280;4701;51.566;6.776;2023-03-13T15:52:25;98933.31;;;27.84;45.13
9325;BME280;4701;51.566;6.776;2023-03-13T15:54:26;98943.31;;;27.85;45.15
9325;BME280;4701;51.566;6.776;2023-03-13T15:56:34;98931.69;;;27.86;45.17
9325;BME280;4701;51.566;6.776;2023-03-13T15:58:36;98922.88;;;27.88;45.09
9325;BME280;4701;51.566;6.776;2023-03-13T16:00:38;98920.44;;;27.90;44.86
9325;BME280;4701;51.566;6.776;2023-03-13T16:02:42;98916.41;;;27.91;44.60
9325;BME280;4701;51.566;6.776;2023-03-13T16:04:44;98906.78;;;27.92;44.77
9325;BME280;4701;51.566;6.776;2023-03-13T16:06:46;98902.78;;;27.93;44.86
9325;BME280;4701;51.566;6.776;2023-03-13T16:08:48;98907.16;;;27.94;44.59
9325;BME280;4701;51.566;6.776;2023-03-13T16:10:50;98896.69;;;27.98;44.68
9325;BME280;4701;51.566;6.776;2023-03-13T16:12:53;98895.91;;;27.98;44.08
9325;BME280;4701;51.566;6.776;2023-03-13T16:14:55;98897.03;;;28.00;44.29
9325;BME280;4701;51.566;6.776;2023-03-13T16:16:57;98885.41;;;28.02;43.74
9325;BME280;4701;51.566;6.776;2023-03-13T16:19:00;98887.00;;;28.03;43.84
9325;BME280;4701;51.566;6.776;2023-03-13T16:21:04;98887.38;;;28.05;44.10
9325;BME280;4701;51.566;6.776;2023-03-13T16:23:07;98884.13;;;28.06;44.20
9325;BME280;4701;51.566;6.776;2023-03-13T16:25:10;98880.09;;;28.07;44.01
9325;BME280;4701;51.566;6.776;2023-03-13T16:27:13;98880.47;;;28.09;43.91
9325;BME280;4701;51.566;6.776;2023-03-13T16:29:15;98887.66;;;28.10;43.96
9325;BME280;4701;51.566;6.776;2023-03-13T16:31:19;98888.00;;;28.12;43.59
9325;BME280;4701;51.566;6.776;2023-03-13T16:33:21;98877.19;;;28.14;43.70
9325;BME280;4701;51.566;6.776;2023-03-13T16:35:26;98877.19;;;28.14;43.66
9325;BME280;4701;51.566;6.776;2023-03-13T16:37:28;98883.16;;;28.16;43.53
9325;BME280;4701;51.566;6.776;2023-03-13T16:39:30;98872.75;;;28.17;43.42
9325;BME280;4701;51.566;6.776;2023-03-13T16:41:32;98876.69;;;28.19;43.58
9325;BME280;4701;51.566;6.776;2023-03-13T16:43:33;98875.13;;;28.18;43.66
9325;BME280;4701;51.566;6.776;2023-03-13T16:45:38;98871.88;;;28.20;43.79
9325;BME280;4701;51.566;6.776;2023-03-13T16:47:40;98862.34;;;28.17;44.86
9325;BME280;4701;51.566;6.776;2023-03-13T16:49:42;98867.13;;;28.17;45.39
9325;BME280;4701;51.566;6.776;2023-03-13T16:51:46;98871.16;;;28.16;45.65
9325;BME280;4701;51.566;6.776;2023-03-13T16:53:49;98875.97;;;28.15;46.09
9325;BME280;4701;51.566;6.776;2023-03-13T16:55:52;98866.78;;;28.15;46.07
9325;BME280;4701;51.566;6.776;2023-03-13T16:57:56;98873.16;;;28.15;46.06
9325;BME280;4701;51.566;6.776;2023-03-13T16:59:58;98873.53;;;28.17;46.51
9325;BME280;4701;51.566;6.776;2023-03-13T17:02:00;98867.13;;;28.17;47.19
9325;BME280;4701;51.566;6.776;2023-03-13T17:04:02;98871.09;;;28.19;46.95
9325;BME280;4701;51.566;6.776;2023-03-13T17:06:04;98868.72;;;28.18;47.05
9325;BME280;4701;51.566;6.776;2023-03-13T17:08:10;98875.13;;;28.18;47.17
9325;BME280;4701;51.566;6.776;2023-03-13T17:10:18;98876.69;;;28.19;46.92
9325;BME280;4701;51.566;6.776;2023-03-13T17:12:20;98877.50;;;28.20;46.96
9325;BME280;4701;51.566;6.776;2023-03-13T17:14:26;98877.50;;;28.20;47.05
9325;BME280;4701;51.566;6.776;2023-03-13T17:16:29;98873.91;;;28.19;47.06
9325;BME280;4701;51.566;6.776;2023-03-13T17:18:33;98878.28;;;28.20;46.60
9325;BME280;4701;51.566;6.776;2023-03-13T17:20:35;98883.09;;;28.20;46.40
9325;BME280;4701;51.566;6.776;2023-03-13T17:22:36;98893.09;;;28.21;46.25
9325;BME280;4701;51.566;6.776;2023-03-13T17:24:40;98888.69;;;28.20;46.18
9325;BME280;4701;51.566;6.776;2023-03-13T17:26:43;98887.06;;;28.22;46.32
9325;BME280;4701;51.566;6.776;2023-03-13T17:28:47;98877.84;;;28.22;46.39
9325;BME280;4701;51.566;6.776;2023-03-13T17:30:49;98884.69;;;28.21;45.89
9325;BME280;4701;51.566;6.776;2023-03-13T17:32:51;98870.25;;;28.22;45.86